Terminal Aerodrome Forecast
Issued by NWS

Home | Current Version | Previous Version | Text Only | Print | Product List | Glossary On
Versions: 1 2 3 4 5 6 7 8 9 10 11 12 13 14 15 16 17
419
FTUS43 KEAX 181738
TAFSTJ
TAF
KSTJ 181738Z 1818/1918 18027G37KT P6SM BKN150
     FM190000 19016KT P6SM BKN025 WS020/21045KT
     FM190500 20017KT 5SM -DZ BR OVC018 WS020/21045KT
     FM191500 22013KT 6SM BR VCSH OVC017=

USA.gov is the U.S. government's official web portal to all federal, state and local government web resources and services.